createdAt,value
2023-03-17T00:01:42.645Z,101027.16
2023-03-17T00:06:45.863Z,101025.66
2023-03-17T00:11:49.218Z,101025.69
2023-03-17T00:16:53.411Z,101038.44
2023-03-17T00:21:56.444Z,101020.47
2023-03-17T00:26:59.068Z,101025.69
2023-03-17T00:32:02.469Z,101031.00
2023-03-17T00:37:05.117Z,101039.38
2023-03-17T00:42:07.959Z,101036.56
2023-03-17T00:47:12.016Z,101046.50
2023-03-17T00:52:14.579Z,101044.28
2023-03-17T00:57:17.177Z,101046.19
2023-03-17T01:02:19.859Z,101057.63
2023-03-17T01:07:22.847Z,101068.81
2023-03-17T01:12:26.737Z,101067.41
2023-03-17T01:17:29.391Z,101067.16
2023-03-17T01:22:32.315Z,101071.34
2023-03-17T01:27:36.831Z,101074.13
2023-03-17T01:32:40.100Z,101078.38
2023-03-17T01:37:42.800Z,101077.09
2023-03-17T01:42:52.697Z,101089.81
2023-03-17T01:47:55.297Z,101092.31
2023-03-17T01:52:57.870Z,101097.66
2023-03-17T01:58:00.715Z,101098.25
2023-03-17T02:03:04.438Z,101094.94
2023-03-17T02:08:16.643Z,101096.06
2023-03-17T02:13:19.497Z,101092.66
2023-03-17T02:18:28.227Z,101090.53
2023-03-17T02:23:30.988Z,101094.84
2023-03-17T02:28:35.439Z,101088.16
2023-03-17T02:33:38.155Z,101093.13
2023-03-17T02:38:41.542Z,101097.19
2023-03-17T02:43:44.055Z,101101.06
2023-03-17T02:48:46.995Z,101095.91
2023-03-17T02:53:49.711Z,101090.34
2023-03-17T02:58:52.682Z,101103.50
2023-03-17T03:03:55.631Z,101112.47
2023-03-17T03:08:58.339Z,101112.47
2023-03-17T03:14:01.382Z,101122.06
2023-03-17T03:19:04.835Z,101119.31
2023-03-17T03:24:07.733Z,101119.28
2023-03-17T03:29:10.316Z,101123.50
2023-03-17T03:34:13.148Z,101118.63
2023-03-17T03:39:16.001Z,101132.13
2023-03-17T03:44:18.573Z,101128.25
2023-03-17T03:49:21.429Z,101138.47
2023-03-17T03:54:24.174Z,101135.53
2023-03-17T03:59:26.729Z,101145.56
2023-03-17T04:04:29.710Z,101146.25
2023-03-17T04:09:32.476Z,101140.88
2023-03-17T04:14:35.213Z,101152.75
2023-03-17T04:19:38.566Z,101155.84
2023-03-17T04:24:41.189Z,101165.25
2023-03-17T04:29:44.341Z,101169.66
2023-03-17T04:34:46.905Z,101164.88
2023-03-17T04:39:49.810Z,101155.13
2023-03-17T04:44:52.287Z,101154.03
2023-03-17T04:49:54.974Z,101152.31
2023-03-17T04:54:57.679Z,101147.63
2023-03-17T05:00:00.392Z,101152.22
2023-03-17T05:05:02.957Z,101152.34
2023-03-17T05:10:06.870Z,101163.34
2023-03-17T05:15:10.211Z,101159.69
2023-03-17T05:20:13.619Z,101148.25
2023-03-17T05:25:17.072Z,101145.78
2023-03-17T05:30:19.963Z,101143.47
2023-03-17T05:35:25.804Z,101136.53
2023-03-17T05:40:28.708Z,101147.19
2023-03-17T05:45:33.693Z,101153.09
2023-03-17T05:50:38.502Z,101154.00
2023-03-17T05:55:41.665Z,101152.75
2023-03-17T06:00:45.422Z,101151.13
2023-03-17T06:05:48.418Z,101154.59
2023-03-17T06:10:51.783Z,101145.91
2023-03-17T06:15:54.438Z,101150.63
2023-03-17T06:20:57.416Z,101147.28
2023-03-17T06:26:00.017Z,101138.41
2023-03-17T06:31:04.702Z,101160.28
2023-03-17T06:36:09.755Z,101139.94
2023-03-17T06:41:12.775Z,101150.63
2023-03-17T06:46:17.355Z,101156.34
2023-03-17T06:51:23.415Z,101156.94
2023-03-17T06:56:31.613Z,101158.25
2023-03-17T07:01:39.496Z,101141.06
2023-03-17T07:06:44.026Z,101142.09
2023-03-17T07:11:49.569Z,101141.38
2023-03-17T07:16:54.513Z,101133.44
2023-03-17T07:21:57.274Z,101144.84
2023-03-17T07:27:02.538Z,101148.50
2023-03-17T07:32:08.315Z,101138.28
2023-03-17T07:37:12.361Z,101135.47
2023-03-17T07:42:17.706Z,101138.50
2023-03-17T07:47:21.346Z,101148.06
2023-03-17T07:52:24.183Z,101155.13
2023-03-17T07:57:27.403Z,101157.63
2023-03-17T08:02:30.343Z,101152.09
2023-03-17T08:07:33.169Z,101143.22
2023-03-17T08:12:36.929Z,101151.44
2023-03-17T08:17:40.362Z,101157.19
2023-03-17T08:22:44.226Z,101156.34
2023-03-17T08:27:47.475Z,101146.28
2023-03-17T08:32:50.480Z,101148.03
2023-03-17T08:37:56.159Z,101141.41
2023-03-17T08:43:00.258Z,101145.59
2023-03-17T08:48:05.878Z,101153.00
2023-03-17T08:53:08.644Z,101144.59
2023-03-17T08:58:11.464Z,101148.78
2023-03-17T09:03:14.325Z,101145.78
2023-03-17T09:08:17.585Z,101138.75
2023-03-17T09:13:22.158Z,101138.16
2023-03-17T09:18:24.897Z,101128.31
2023-03-17T09:23:28.057Z,101130.75
2023-03-17T09:28:32.114Z,101123.31
2023-03-17T09:33:35.107Z,101118.31
2023-03-17T09:38:39.177Z,101120.78
2023-03-17T09:44:01.466Z,101117.50
2023-03-17T09:59:44.085Z,101129.00
2023-03-17T10:04:48.137Z,101108.16
2023-03-17T10:15:22.417Z,101116.22
2023-03-17T10:20:43.573Z,101102.22
2023-03-17T10:25:48.684Z,101104.22
2023-03-17T10:31:03.567Z,101094.56
2023-03-17T10:36:10.027Z,101090.94
2023-03-17T10:41:16.837Z,101076.44
2023-03-17T10:46:30.365Z,101078.47
2023-03-17T10:51:36.891Z,101075.22
2023-03-17T10:56:42.593Z,101078.22
2023-03-17T11:01:53.077Z,101078.84
2023-03-17T11:06:58.771Z,101071.94
2023-03-17T11:12:06.029Z,101072.44
2023-03-17T11:17:48.401Z,101078.91
2023-03-17T11:23:19.563Z,101067.28
2023-03-17T11:28:28.587Z,101056.41
2023-03-17T11:38:58.645Z,101066.88
2023-03-17T11:44:31.474Z,101075.47
2023-03-17T11:49:40.052Z,101073.28
2023-03-17T12:05:19.384Z,101077.19
2023-03-17T12:15:48.844Z,101078.41
2023-03-17T12:20:58.700Z,101086.53
2023-03-17T12:26:08.944Z,101086.16
2023-03-17T12:31:25.334Z,101092.72
2023-03-17T12:36:28.819Z,101087.97
2023-03-17T12:47:28.032Z,101086.41
2023-03-17T13:03:58.155Z,101088.91
2023-03-17T13:09:20.737Z,101107.31
2023-03-17T13:14:43.644Z,101105.91
2023-03-17T13:20:04.593Z,101114.69
2023-03-17T13:30:55.408Z,101123.34
2023-03-17T13:51:59.798Z,101141.53
2023-03-17T14:02:39.939Z,101144.97
2023-03-17T14:07:49.547Z,101153.78
2023-03-17T14:18:28.350Z,101150.00
2023-03-17T14:23:31.629Z,101167.06
2023-03-17T14:28:35.669Z,101158.91
2023-03-17T14:33:41.192Z,101167.34
2023-03-17T14:38:49.217Z,101165.53
2023-03-17T14:43:54.110Z,101178.81
2023-03-17T14:49:17.844Z,101177.59
2023-03-17T14:54:24.872Z,101179.44
2023-03-17T14:59:32.054Z,101185.84
2023-03-17T15:04:34.823Z,101197.50
2023-03-17T15:09:39.989Z,101194.00
2023-03-17T15:14:45.609Z,101200.81
2023-03-17T15:19:53.766Z,101206.69
2023-03-17T15:30:14.736Z,101205.81
2023-03-17T15:35:17.593Z,101214.81
2023-03-17T15:40:21.649Z,101215.97
2023-03-17T15:45:24.891Z,101222.66
2023-03-17T15:50:33.229Z,101227.44
2023-03-17T15:55:36.249Z,101226.91
2023-03-17T16:00:39.344Z,101224.69
2023-03-17T16:05:43.463Z,101231.78
2023-03-17T16:10:47.036Z,101230.03
2023-03-17T16:15:56.894Z,101231.53
2023-03-17T16:21:00.403Z,101243.00
2023-03-17T16:26:14.130Z,101241.50
2023-03-17T16:31:25.705Z,101240.69
2023-03-17T16:36:28.683Z,101242.19
2023-03-17T16:41:34.975Z,101244.97
2023-03-17T16:46:38.144Z,101240.22
2023-03-17T16:51:41.317Z,101248.44
2023-03-17T16:56:43.992Z,101249.16
2023-03-17T17:01:46.838Z,101249.50
2023-03-17T17:06:50.116Z,101250.44
2023-03-17T17:11:52.656Z,101242.63
2023-03-17T17:16:55.327Z,101250.06
2023-03-17T17:21:58.474Z,101260.81
2023-03-17T17:27:01.723Z,101260.63
2023-03-17T17:32:04.497Z,101265.69
2023-03-17T17:37:09.560Z,101257.25
2023-03-17T17:42:12.327Z,101255.41
2023-03-17T17:47:15.883Z,101255.97
2023-03-17T17:52:18.810Z,101246.25
2023-03-17T17:57:22.621Z,101242.31
2023-03-17T18:02:30.125Z,101241.75
2023-03-17T18:07:33.439Z,101240.94
2023-03-17T18:12:38.172Z,101245.56
2023-03-17T18:17:43.020Z,101244.63
2023-03-17T18:22:46.786Z,101249.84
2023-03-17T18:27:49.665Z,101257.22
2023-03-17T18:32:58.607Z,101261.50
2023-03-17T18:38:01.926Z,101265.88
2023-03-17T18:43:04.671Z,101270.22
2023-03-17T18:48:07.321Z,101273.06
2023-03-17T18:53:09.875Z,101261.53
2023-03-17T18:58:13.578Z,101264.03
2023-03-17T19:03:16.674Z,101262.75
2023-03-17T19:08:20.555Z,101267.63
2023-03-17T19:13:24.401Z,101273.94
2023-03-17T19:18:27.848Z,101265.50
2023-03-17T19:23:32.299Z,101280.00
2023-03-17T19:28:35.656Z,101266.25
2023-03-17T19:33:38.312Z,101272.34
2023-03-17T19:38:41.507Z,101278.81
2023-03-17T19:43:44.208Z,101277.28
2023-03-17T19:48:46.801Z,101278.50
2023-03-17T19:53:49.739Z,101278.03
2023-03-17T19:58:52.443Z,101267.69
2023-03-17T20:03:55.287Z,101268.34
2023-03-17T20:08:58.110Z,101264.44
2023-03-17T20:14:02.607Z,101265.78
2023-03-17T20:19:05.313Z,101261.19
2023-03-17T20:24:09.907Z,101255.66
2023-03-17T20:29:14.549Z,101252.19
2023-03-17T20:34:17.212Z,101260.31
2023-03-17T20:39:20.194Z,101259.50
2023-03-17T20:44:24.748Z,101267.50
2023-03-17T20:49:27.859Z,101267.63
2023-03-17T20:54:30.486Z,101267.03
2023-03-17T20:59:34.626Z,101259.72
2023-03-17T21:04:37.354Z,101262.41
2023-03-17T21:09:41.436Z,101268.09
2023-03-17T21:14:44.326Z,101277.41
2023-03-17T21:19:47.520Z,101282.41
2023-03-17T21:24:50.575Z,101280.88
2023-03-17T21:29:53.448Z,101278.78
2023-03-17T21:34:56.725Z,101280.19
2023-03-17T21:39:59.464Z,101282.56
2023-03-17T21:45:02.038Z,101275.94
2023-03-17T21:50:06.179Z,101283.72
2023-03-17T21:55:09.519Z,101311.91
2023-03-17T22:00:13.187Z,101307.47
2023-03-17T22:05:16.441Z,101304.88
2023-03-17T22:10:19.134Z,101285.44
2023-03-17T22:15:22.595Z,101302.00
2023-03-17T22:20:25.482Z,101314.16
2023-03-17T22:25:28.405Z,101304.00
2023-03-17T22:30:31.852Z,101299.69
2023-03-17T22:35:34.753Z,101233.78
2023-03-17T22:40:37.479Z,101226.66
2023-03-17T22:45:40.082Z,101232.72
2023-03-17T22:50:43.009Z,101257.06
2023-03-17T22:55:45.666Z,101269.34
2023-03-17T23:00:48.896Z,101281.78
2023-03-17T23:05:54.821Z,101277.00
2023-03-17T23:10:59.783Z,101272.63
2023-03-17T23:16:03.351Z,101269.06
2023-03-17T23:21:06.938Z,101290.91
2023-03-17T23:26:09.480Z,101295.09
2023-03-17T23:31:13.273Z,101297.28
2023-03-17T23:36:17.156Z,101306.63
2023-03-17T23:41:20.298Z,101315.22
2023-03-17T23:46:22.887Z,101308.25
2023-03-17T23:51:25.599Z,101302.94
2023-03-17T23:56:28.309Z,101290.91
